sensor_id;sensor_type;location;lat;lon;timestamp;pressure;altitude;pressure_sealevel;temperature;humidity
50292;BME280;36190;54.980;73.388;2023-04-06T00:01:10;100209.44;;;4.50;56.72
50292;BME280;36190;54.980;73.388;2023-04-06T00:03:38;100202.75;;;4.46;56.66
50292;BME280;36190;54.980;73.388;2023-04-06T00:06:05;100202.75;;;4.46;56.84
50292;BME280;36190;54.980;73.388;2023-04-06T00:08:33;100204.56;;;4.45;56.76
50292;BME280;36190;54.980;73.388;2023-04-06T00:11:01;100203.00;;;4.43;56.94
50292;BME280;36190;54.980;73.388;2023-04-06T00:13:30;100202.44;;;4.39;57.04
50292;BME280;36190;54.980;73.388;2023-04-06T00:15:57;100210.50;;;4.37;57.15
50292;BME280;36190;54.980;73.388;2023-04-06T00:18:25;100208.81;;;4.36;57.16
50292;BME280;36190;54.980;73.388;2023-04-06T00:20:52;100193.75;;;4.27;57.32
50292;BME280;36190;54.980;73.388;2023-04-06T00:23:20;100196.28;;;4.29;57.42
50292;BME280;36190;54.980;73.388;2023-04-06T00:25:47;100200.72;;;4.28;57.51
50292;BME280;36190;54.980;73.388;2023-04-06T00:28:15;100195.59;;;4.26;57.50
50292;BME280;36190;54.980;73.388;2023-04-06T00:30:44;100186.81;;;4.26;57.57
50292;BME280;36190;54.980;73.388;2023-04-06T00:33:12;100185.16;;;4.25;57.58
50292;BME280;36190;54.980;73.388;2023-04-06T00:35:39;100187.66;;;4.26;57.76
50292;BME280;36190;54.980;73.388;2023-04-06T00:38:07;100188.47;;;4.27;57.66
50292;BME280;36190;54.980;73.388;2023-04-06T00:40:35;100185.16;;;4.25;57.91
50292;BME280;36190;54.980;73.388;2023-04-06T00:43:02;100174.69;;;4.23;57.84
50292;BME280;36190;54.980;73.388;2023-04-06T00:45:30;100178.88;;;4.26;57.70
50292;BME280;36190;54.980;73.388;2023-04-06T00:47:59;100176.13;;;4.28;57.97
50292;BME280;36190;54.980;73.388;2023-04-06T00:50:27;100168.78;;;4.31;57.80
50292;BME280;36190;54.980;73.388;2023-04-06T00:52:55;100165.28;;;4.31;57.84
50292;BME280;36190;54.980;73.388;2023-04-06T00:55:23;100175.44;;;4.35;57.66
50292;BME280;36190;54.980;73.388;2023-04-06T00:57:50;100179.50;;;4.39;57.74
50292;BME280;36190;54.980;73.388;2023-04-06T01:00:18;100174.91;;;4.42;57.74
50292;BME280;36190;54.980;73.388;2023-04-06T01:02:46;100174.63;;;4.45;57.63
50292;BME280;36190;54.980;73.388;2023-04-06T01:05:16;100171.06;;;4.46;57.75
50292;BME280;36190;54.980;73.388;2023-04-06T01:07:44;100167.44;;;4.47;57.55
50292;BME280;36190;54.980;73.388;2023-04-06T01:10:11;100169.94;;;4.48;57.78
50292;BME280;36190;54.980;73.388;2023-04-06T01:12:49;100163.53;;;4.51;57.75
50292;BME280;36190;54.980;73.388;2023-04-06T01:15:17;100167.44;;;4.57;57.73
50292;BME280;36190;54.980;73.388;2023-04-06T01:17:44;100166.78;;;4.64;57.66
50292;BME280;36190;54.980;73.388;2023-04-06T01:20:12;100170.81;;;4.68;57.60
50292;BME280;36190;54.980;73.388;2023-04-06T01:22:41;100169.59;;;4.73;57.61
50292;BME280;36190;54.980;73.388;2023-04-06T01:25:10;100161.69;;;4.82;57.62
50292;BME280;36190;54.980;73.388;2023-04-06T01:27:38;100152.38;;;4.88;57.40
50292;BME280;36190;54.980;73.388;2023-04-06T01:30:06;100147.78;;;4.90;57.38
50292;BME280;36190;54.980;73.388;2023-04-06T01:32:34;100151.97;;;4.93;57.32
50292;BME280;36190;54.980;73.388;2023-04-06T01:35:01;100143.88;;;4.94;57.26
50292;BME280;36190;54.980;73.388;2023-04-06T01:37:29;100143.63;;;4.98;57.20
50292;BME280;36190;54.980;73.388;2023-04-06T01:40:00;100142.50;;;5.00;57.46
50292;BME280;36190;54.980;73.388;2023-04-06T01:42:27;100145.31;;;5.08;57.21
50292;BME280;36190;54.980;73.388;2023-04-06T01:44:56;100145.56;;;5.15;57.07
50292;BME280;36190;54.980;73.388;2023-04-06T01:47:24;100144.72;;;5.25;57.02
50292;BME280;36190;54.980;73.388;2023-04-06T01:49:51;100150.03;;;5.34;56.94
50292;BME280;36190;54.980;73.388;2023-04-06T01:52:19;100141.13;;;5.45;56.69
50292;BME280;36190;54.980;73.388;2023-04-06T01:54:47;100140.25;;;5.55;56.55
50292;BME280;36190;54.980;73.388;2023-04-06T01:57:16;100140.25;;;5.64;56.46
50292;BME280;36190;54.980;73.388;2023-04-06T01:59:44;100138.53;;;5.73;56.19
50292;BME280;36190;54.980;73.388;2023-04-06T02:02:12;100138.78;;;5.80;56.15
50292;BME280;36190;54.980;73.388;2023-04-06T02:04:39;100138.22;;;5.86;55.90
50292;BME280;36190;54.980;73.388;2023-04-06T02:07:07;100143.25;;;5.89;55.88
50292;BME280;36190;54.980;73.388;2023-04-06T02:09:35;100130.94;;;5.98;55.63
50292;BME280;36190;54.980;73.388;2023-04-06T02:12:03;100122.47;;;6.04;55.50
50292;BME280;36190;54.980;73.388;2023-04-06T02:14:33;100115.06;;;6.08;55.46
50292;BME280;36190;54.980;73.388;2023-04-06T02:17:00;100115.97;;;6.17;55.50
50292;BME280;36190;54.980;73.388;2023-04-06T02:19:28;100114.16;;;6.27;55.13
50292;BME280;36190;54.980;73.388;2023-04-06T02:21:55;100115.22;;;6.35;55.09
50292;BME280;36190;54.980;73.388;2023-04-06T02:24:23;100108.63;;;6.39;54.79
50292;BME280;36190;54.980;73.388;2023-04-06T02:26:50;100103.75;;;6.44;54.86
50292;BME280;36190;54.980;73.388;2023-04-06T02:29:18;100096.00;;;6.51;54.71
50292;BME280;36190;54.980;73.388;2023-04-06T02:31:47;100099.19;;;6.54;54.62
50292;BME280;36190;54.980;73.388;2023-04-06T02:34:15;100101.41;;;6.59;54.55
50292;BME280;36190;54.980;73.388;2023-04-06T02:36:44;100105.81;;;6.68;54.19
50292;BME280;36190;54.980;73.388;2023-04-06T02:39:12;100111.38;;;6.75;54.05
50292;BME280;36190;54.980;73.388;2023-04-06T02:41:39;100100.31;;;6.80;54.03
50292;BME280;36190;54.980;73.388;2023-04-06T02:44:08;100086.72;;;6.83;53.81
50292;BME280;36190;54.980;73.388;2023-04-06T02:46:35;100091.25;;;6.91;53.69
50292;BME280;36190;54.980;73.388;2023-04-06T02:49:05;100088.00;;;6.97;53.40
50292;BME280;36190;54.980;73.388;2023-04-06T02:51:33;100084.91;;;7.01;53.50
50292;BME280;36190;54.980;73.388;2023-04-06T02:54:00;100081.66;;;7.08;53.46
50292;BME280;36190;54.980;73.388;2023-04-06T02:56:28;100075.59;;;7.15;53.40
50292;BME280;36190;54.980;73.388;2023-04-06T02:58:56;100059.66;;;7.15;53.03
50292;BME280;36190;54.980;73.388;2023-04-06T03:01:23;100067.56;;;7.34;52.95
50292;BME280;36190;54.980;73.388;2023-04-06T03:03:51;100061.66;;;7.40;52.81
50292;BME280;36190;54.980;73.388;2023-04-06T03:06:20;100069.16;;;7.45;52.83
50292;BME280;36190;54.980;73.388;2023-04-06T03:08:48;100053.75;;;7.48;52.47
50292;BME280;36190;54.980;73.388;2023-04-06T03:11:16;100051.97;;;7.57;52.34
50292;BME280;36190;54.980;73.388;2023-04-06T03:13:43;100044.06;;;7.65;52.52
50292;BME280;36190;54.980;73.388;2023-04-06T03:16:11;100050.41;;;7.73;52.23
50292;BME280;36190;54.980;73.388;2023-04-06T03:18:38;100040.50;;;7.83;52.14
50292;BME280;36190;54.980;73.388;2023-04-06T03:21:06;100036.88;;;7.92;51.90
50292;BME280;36190;54.980;73.388;2023-04-06T03:23:35;100040.22;;;8.03;51.92
50292;BME280;36190;54.980;73.388;2023-04-06T03:26:02;100028.31;;;8.07;51.53
50292;BME280;36190;54.980;73.388;2023-04-06T03:28:30;100024.00;;;8.14;51.65
50292;BME280;36190;54.980;73.388;2023-04-06T03:30:58;100033.81;;;8.22;51.25
50292;BME280;36190;54.980;73.388;2023-04-06T03:33:26;100033.00;;;8.30;51.03
50292;BME280;36190;54.980;73.388;2023-04-06T03:35:54;100023.88;;;8.32;51.00
50292;BME280;36190;54.980;73.388;2023-04-06T03:38:22;100027.75;;;8.38;50.53
50292;BME280;36190;54.980;73.388;2023-04-06T03:40:51;100028.91;;;8.44;50.57
50292;BME280;36190;54.980;73.388;2023-04-06T03:43:18;100023.09;;;8.48;50.61
50292;BME280;36190;54.980;73.388;2023-04-06T03:45:46;100026.09;;;8.53;50.57
50292;BME280;36190;54.980;73.388;2023-04-06T03:48:14;100025.31;;;8.61;50.49
50292;BME280;36190;54.980;73.388;2023-04-06T03:50:41;100021.81;;;8.69;50.34
50292;BME280;36190;54.980;73.388;2023-04-06T03:53:09;100024.81;;;8.74;50.16
50292;BME280;36190;54.980;73.388;2023-04-06T03:55:36;100037.78;;;8.77;50.10
50292;BME280;36190;54.980;73.388;2023-04-06T03:58:05;100018.50;;;8.84;49.77
50292;BME280;36190;54.980;73.388;2023-04-06T04:00:33;100013.19;;;8.92;49.87
50292;BME280;36190;54.980;73.388;2023-04-06T04:03:01;100009.19;;;9.04;49.77
50292;BME280;36190;54.980;73.388;2023-04-06T04:05:29;100005.16;;;9.17;49.44
50292;BME280;36190;54.980;73.388;2023-04-06T04:07:56;100005.81;;;9.27;49.33
50292;BME280;36190;54.980;73.388;2023-04-06T04:10:24;100003.47;;;9.41;49.15
50292;BME280;36190;54.980;73.388;2023-04-06T04:12:51;99991.97;;;9.48;49.04
50292;BME280;36190;54.980;73.388;2023-04-06T04:15:21;99987.59;;;9.56;48.78
50292;BME280;36190;54.980;73.388;2023-04-06T04:17:48;99984.41;;;9.60;48.45
50292;BME280;36190;54.980;73.388;2023-04-06T04:20:16;99978.41;;;9.67;48.44
50292;BME280;36190;54.980;73.388;2023-04-06T04:22:44;99975.53;;;9.76;48.13
50292;BME280;36190;54.980;73.388;2023-04-06T04:25:11;99977.16;;;9.86;48.37
50292;BME280;36190;54.980;73.388;2023-04-06T04:27:39;99974.28;;;9.96;48.29
50292;BME280;36190;54.980;73.388;2023-04-06T04:30:07;99970.59;;;10.05;48.03
50292;BME280;36190;54.980;73.388;2023-04-06T04:32:36;99970.53;;;10.13;47.71
50292;BME280;36190;54.980;73.388;2023-04-06T04:35:05;99974.50;;;10.17;47.42
50292;BME280;36190;54.980;73.388;2023-04-06T04:37:33;99970.13;;;10.25;47.15
50292;BME280;36190;54.980;73.388;2023-04-06T04:40:01;99967.75;;;10.30;47.18
50292;BME280;36190;54.980;73.388;2023-04-06T04:42:29;99968.88;;;10.36;46.91
50292;BME280;36190;54.980;73.388;2023-04-06T04:44:56;99966.38;;;10.42;46.63
50292;BME280;36190;54.980;73.388;2023-04-06T04:47:24;99959.50;;;10.48;46.47
50292;BME280;36190;54.980;73.388;2023-04-06T04:49:53;99956.31;;;10.53;46.30
50292;BME280;36190;54.980;73.388;2023-04-06T04:52:20;99958.06;;;10.61;46.04
50292;BME280;36190;54.980;73.388;2023-04-06T04:54:48;99951.84;;;10.68;46.03
50292;BME280;36190;54.980;73.388;2023-04-06T04:57:16;99952.13;;;10.73;45.80
50292;BME280;36190;54.980;73.388;2023-04-06T04:59:43;99935.41;;;10.80;45.52
50292;BME280;36190;54.980;73.388;2023-04-06T05:02:11;99949.69;;;10.87;45.61
50292;BME280;36190;54.980;73.388;2023-04-06T05:04:38;99950.44;;;10.96;45.21
50292;BME280;36190;54.980;73.388;2023-04-06T05:07:08;99942.34;;;11.04;45.31
50292;BME280;36190;54.980;73.388;2023-04-06T05:09:35;99954.78;;;11.12;45.24
50292;BME280;36190;54.980;73.388;2023-04-06T05:12:03;99940.50;;;11.20;45.43
50292;BME280;36190;54.980;73.388;2023-04-06T05:14:31;99927.91;;;11.28;45.23
50292;BME280;36190;54.980;73.388;2023-04-06T05:16:59;99927.97;;;11.35;45.04
50292;BME280;36190;54.980;73.388;2023-04-06T05:19:26;99925.41;;;11.42;44.99
50292;BME280;36190;54.980;73.388;2023-04-06T05:21:54;99913.97;;;11.48;44.91
50292;BME280;36190;54.980;73.388;2023-04-06T05:24:23;99918.22;;;11.58;44.71
50292;BME280;36190;54.980;73.388;2023-04-06T05:26:51;99905.78;;;11.65;44.66
50292;BME280;36190;54.980;73.388;2023-04-06T05:29:19;99905.66;;;11.73;44.43
50292;BME280;36190;54.980;73.388;2023-04-06T05:31:47;99905.91;;;11.78;44.40
50292;BME280;36190;54.980;73.388;2023-04-06T05:34:15;99907.19;;;11.82;44.42
50292;BME280;36190;54.980;73.388;2023-04-06T05:36:42;99901.91;;;11.89;44.42
50292;BME280;36190;54.980;73.388;2023-04-06T05:39:10;99896.63;;;11.96;44.14
50292;BME280;36190;54.980;73.388;2023-04-06T05:41:39;99896.91;;;12.01;43.92
50292;BME280;36190;54.980;73.388;2023-04-06T05:44:07;99896.19;;;12.07;43.78
50292;BME280;36190;54.980;73.388;2023-04-06T05:46:34;99893.94;;;12.11;43.90
50292;BME280;36190;54.980;73.388;2023-04-06T05:49:02;99894.84;;;12.18;43.85
50292;BME280;36190;54.980;73.388;2023-04-06T05:51:30;99899.41;;;12.24;43.86
50292;BME280;36190;54.980;73.388;2023-04-06T05:53:58;99897.84;;;12.30;43.68
50292;BME280;36190;54.980;73.388;2023-04-06T05:56:26;99896.41;;;12.34;43.62
50292;BME280;36190;54.980;73.388;2023-04-06T05:58:57;99879.59;;;12.41;43.55
50292;BME280;36190;54.980;73.388;2023-04-06T06:01:25;99869.28;;;12.37;43.82
50292;BME280;36190;54.980;73.388;2023-04-06T06:03:52;99877.81;;;12.48;43.72
50292;BME280;36190;54.980;73.388;2023-04-06T06:06:20;99873.53;;;12.54;43.66
50292;BME280;36190;54.980;73.388;2023-04-06T06:08:48;99871.31;;;12.57;43.44
50292;BME280;36190;54.980;73.388;2023-04-06T06:11:15;99870.91;;;12.60;43.40
50292;BME280;36190;54.980;73.388;2023-04-06T06:13:43;99872.19;;;12.64;43.07
50292;BME280;36190;54.980;73.388;2023-04-06T06:16:12;99861.69;;;12.70;43.03
50292;BME280;36190;54.980;73.388;2023-04-06T06:18:39;99857.19;;;12.70;42.94
50292;BME280;36190;54.980;73.388;2023-04-06T06:21:07;99868.19;;;12.82;42.96
50292;BME280;36190;54.980;73.388;2023-04-06T06:23:35;99861.41;;;12.86;43.08
50292;BME280;36190;54.980;73.388;2023-04-06T06:26:02;99860.81;;;12.91;43.19
50292;BME280;36190;54.980;73.388;2023-04-06T06:28:30;99854.22;;;12.93;43.27
50292;BME280;36190;54.980;73.388;2023-04-06T06:30:57;99856.53;;;12.97;43.55
50292;BME280;36190;54.980;73.388;2023-04-06T06:33:27;99857.19;;;13.05;43.72
50292;BME280;36190;54.980;73.388;2023-04-06T06:35:54;99855.19;;;13.14;43.55
50292;BME280;36190;54.980;73.388;2023-04-06T06:38:22;99858.91;;;13.20;43.76
50292;BME280;36190;54.980;73.388;2023-04-06T06:40:52;99850.28;;;13.25;43.74
50292;BME280;36190;54.980;73.388;2023-04-06T06:43:19;99848.22;;;13.27;43.63
50292;BME280;36190;54.980;73.388;2023-04-06T06:45:47;99848.03;;;13.28;43.69
50292;BME280;36190;54.980;73.388;2023-04-06T06:48:15;99834.88;;;13.33;43.63
50292;BME280;36190;54.980;73.388;2023-04-06T06:50:44;99839.63;;;13.38;43.92
50292;BME280;36190;54.980;73.388;2023-04-06T06:53:11;99835.50;;;13.42;43.81
50292;BME280;36190;54.980;73.388;2023-04-06T06:55:39;99838.25;;;13.49;43.75
50292;BME280;36190;54.980;73.388;2023-04-06T06:58:07;99825.69;;;13.56;43.76
50292;BME280;36190;54.980;73.388;2023-04-06T07:00:34;99828.59;;;13.61;43.76
50292;BME280;36190;54.980;73.388;2023-04-06T07:03:02;99830.66;;;13.66;43.90
50292;BME280;36190;54.980;73.388;2023-04-06T07:05:29;99829.00;;;13.72;43.52
50292;BME280;36190;54.980;73.388;2023-04-06T07:07:59;99831.31;;;13.75;43.47
50292;BME280;36190;54.980;73.388;2023-04-06T07:10:26;99825.72;;;13.77;43.54
50292;BME280;36190;54.980;73.388;2023-04-06T07:12:54;99804.28;;;13.77;43.54
50292;BME280;36190;54.980;73.388;2023-04-06T07:15:21;99809.25;;;13.86;43.53
50292;BME280;36190;54.980;73.388;2023-04-06T07:17:49;99815.66;;;13.92;43.27
50292;BME280;36190;54.980;73.388;2023-04-06T07:20:18;99809.66;;;13.97;43.13
50292;BME280;36190;54.980;73.388;2023-04-06T07:22:45;99806.38;;;14.01;43.26
50292;BME280;36190;54.980;73.388;2023-04-06T07:25:15;99801.63;;;14.10;43.02
50292;BME280;36190;54.980;73.388;2023-04-06T07:27:43;99800.59;;;14.25;43.12
50292;BME280;36190;54.980;73.388;2023-04-06T07:30:11;99794.41;;;14.38;42.92
50292;BME280;36190;54.980;73.388;2023-04-06T07:32:38;99786.97;;;14.53;42.97
50292;BME280;36190;54.980;73.388;2023-04-06T07:35:07;99793.13;;;14.67;42.57
50292;BME280;36190;54.980;73.388;2023-04-06T07:37:34;99795.56;;;14.82;42.24
50292;BME280;36190;54.980;73.388;2023-04-06T07:40:02;99792.25;;;14.94;42.04
50292;BME280;36190;54.980;73.388;2023-04-06T07:42:31;99797.41;;;15.02;41.94
50292;BME280;36190;54.980;73.388;2023-04-06T07:44:59;99790.94;;;15.10;41.72
50292;BME280;36190;54.980;73.388;2023-04-06T07:47:26;99787.22;;;15.18;41.47
50292;BME280;36190;54.980;73.388;2023-04-06T07:49:54;99788.59;;;15.27;41.52
50292;BME280;36190;54.980;73.388;2023-04-06T07:52:23;99786.28;;;15.37;41.47
50292;BME280;36190;54.980;73.388;2023-04-06T07:54:50;99782.88;;;15.49;41.35
50292;BME280;36190;54.980;73.388;2023-04-06T07:57:18;99788.19;;;15.62;41.45
50292;BME280;36190;54.980;73.388;2023-04-06T07:59:47;99778.56;;;15.80;41.25
50292;BME280;36190;54.980;73.388;2023-04-06T08:02:15;99786.75;;;15.99;41.18
50292;BME280;36190;54.980;73.388;2023-04-06T08:04:42;99773.75;;;16.14;41.02
50292;BME280;36190;54.980;73.388;2023-04-06T08:07:10;99775.75;;;16.26;40.68
50292;BME280;36190;54.980;73.388;2023-04-06T08:09:38;99770.25;;;16.39;40.24
50292;BME280;36190;54.980;73.388;2023-04-06T08:12:06;99777.09;;;16.60;40.04
50292;BME280;36190;54.980;73.388;2023-04-06T08:14:33;99776.88;;;16.81;39.64
50292;BME280;36190;54.980;73.388;2023-04-06T08:17:02;99777.47;;;17.01;39.18
50292;BME280;36190;54.980;73.388;2023-04-06T08:19:30;99757.59;;;17.14;38.90
50292;BME280;36190;54.980;73.388;2023-04-06T08:21:58;99760.13;;;17.28;38.80
50292;BME280;36190;54.980;73.388;2023-04-06T08:24:26;99765.63;;;17.52;38.42
50292;BME280;36190;54.980;73.388;2023-04-06T08:26:58;99747.25;;;17.72;38.23
50292;BME280;36190;54.980;73.388;2023-04-06T08:29:25;99752.94;;;17.95;37.92
50292;BME280;36190;54.980;73.388;2023-04-06T08:31:53;99737.22;;;18.16;37.74
50292;BME280;36190;54.980;73.388;2023-04-06T08:34:22;99733.25;;;18.30;37.48
50292;BME280;36190;54.980;73.388;2023-04-06T08:36:49;99716.66;;;18.50;37.42
50292;BME280;36190;54.980;73.388;2023-04-06T08:39:18;99724.25;;;18.65;37.10
50292;BME280;36190;54.980;73.388;2023-04-06T08:41:51;99722.03;;;18.74;36.95
50292;BME280;36190;54.980;73.388;2023-04-06T08:44:23;99724.91;;;18.85;36.83
50292;BME280;36190;54.980;73.388;2023-04-06T08:46:50;99725.09;;;19.07;36.69
50292;BME280;36190;54.980;73.388;2023-04-06T08:49:18;99719.59;;;19.31;36.13
50292;BME280;36190;54.980;73.388;2023-04-06T08:51:48;99712.72;;;19.40;35.88
50292;BME280;36190;54.980;73.388;2023-04-06T08:54:16;99712.91;;;19.50;35.75
50292;BME280;36190;54.980;73.388;2023-04-06T08:56:43;99701.38;;;19.55;35.79
50292;BME280;36190;54.980;73.388;2023-04-06T08:59:12;99699.31;;;19.79;35.46
50292;BME280;36190;54.980;73.388;2023-04-06T09:01:40;99710.97;;;19.97;35.34
50292;BME280;36190;54.980;73.388;2023-04-06T09:04:10;99696.84;;;20.12;35.07
50292;BME280;36190;54.980;73.388;2023-04-06T09:06:38;99698.38;;;20.25;34.75
50292;BME280;36190;54.980;73.388;2023-04-06T09:09:08;99693.00;;;20.30;34.26
50292;BME280;36190;54.980;73.388;2023-04-06T09:11:46;99700.28;;;20.47;33.88
50292;BME280;36190;54.980;73.388;2023-04-06T09:14:14;99686.34;;;20.60;33.66
50292;BME280;36190;54.980;73.388;2023-04-06T09:16:43;99690.25;;;20.70;33.36
50292;BME280;36190;54.980;73.388;2023-04-06T09:19:12;99684.66;;;20.99;33.08
50292;BME280;36190;54.980;73.388;2023-04-06T09:21:39;99686.69;;;21.14;32.17
50292;BME280;36190;54.980;73.388;2023-04-06T09:24:09;99678.47;;;21.31;31.70
50292;BME280;36190;54.980;73.388;2023-04-06T09:26:46;99684.59;;;21.54;31.19
50292;BME280;36190;54.980;73.388;2023-04-06T09:29:22;99683.06;;;21.63;31.03
50292;BME280;36190;54.980;73.388;2023-04-06T09:31:51;99676.13;;;21.78;30.95
50292;BME280;36190;54.980;73.388;2023-04-06T09:34:22;99672.97;;;21.91;30.46
50292;BME280;36190;54.980;73.388;2023-04-06T09:36:50;99666.50;;;21.97;30.30
50292;BME280;36190;54.980;73.388;2023-04-06T09:39:22;99663.28;;;22.06;30.00
50292;BME280;36190;54.980;73.388;2023-04-06T09:41:52;99663.09;;;22.18;30.11
50292;BME280;36190;54.980;73.388;2023-04-06T09:44:20;99657.66;;;22.18;29.81
50292;BME280;36190;54.980;73.388;2023-04-06T09:46:51;99661.19;;;22.23;29.62
50292;BME280;36190;54.980;73.388;2023-04-06T09:49:21;99664.50;;;22.31;29.29
50292;BME280;36190;54.980;73.388;2023-04-06T09:51:58;99658.56;;;22.39;28.75
50292;BME280;36190;54.980;73.388;2023-04-06T09:54:29;99657.28;;;22.52;28.89
50292;BME280;36190;54.980;73.388;2023-04-06T09:57:07;99642.88;;;22.57;28.77
50292;BME280;36190;54.980;73.388;2023-04-06T09:59:41;99648.88;;;22.64;28.29
50292;BME280;36190;54.980;73.388;2023-04-06T10:02:17;99646.22;;;22.79;28.33
50292;BME280;36190;54.980;73.388;2023-04-06T10:04:53;99660.41;;;23.02;27.77
50292;BME280;36190;54.980;73.388;2023-04-06T10:07:23;99647.38;;;23.10;28.17
50292;BME280;36190;54.980;73.388;2023-04-06T10:09:53;99659.31;;;23.08;28.13
50292;BME280;36190;54.980;73.388;2023-04-06T10:12:22;99652.22;;;22.97;28.32
50292;BME280;36190;54.980;73.388;2023-04-06T10:14:50;99653.84;;;22.88;28.66
50292;BME280;36190;54.980;73.388;2023-04-06T10:17:18;99662.28;;;22.86;28.70
50292;BME280;36190;54.980;73.388;2023-04-06T10:19:51;99660.38;;;22.87;28.94
50292;BME280;36190;54.980;73.388;2023-04-06T10:22:21;99661.75;;;23.00;29.13
50292;BME280;36190;54.980;73.388;2023-04-06T10:24:52;99657.66;;;22.97;29.21
50292;BME280;36190;54.980;73.388;2023-04-06T10:27:28;99653.88;;;23.03;29.33
50292;BME280;36190;54.980;73.388;2023-04-06T10:30:01;99652.25;;;23.02;29.37
50292;BME280;36190;54.980;73.388;2023-04-06T10:32:34;99640.22;;;22.83;29.62
50292;BME280;36190;54.980;73.388;2023-04-06T10:35:09;99640.22;;;22.72;29.54
50292;BME280;36190;54.980;73.388;2023-04-06T10:37:48;99635.81;;;22.56;29.79
50292;BME280;36190;54.980;73.388;2023-04-06T10:40:24;99629.97;;;22.31;30.21
50292;BME280;36190;54.980;73.388;2023-04-06T10:42:52;99625.28;;;22.11;30.39
50292;BME280;36190;54.980;73.388;2023-04-06T10:45:22;99606.75;;;22.03;30.52
50292;BME280;36190;54.980;73.388;2023-04-06T10:47:52;99610.97;;;22.26;30.38
50292;BME280;36190;54.980;73.388;2023-04-06T10:50:20;99605.91;;;22.56;30.08
50292;BME280;36190;54.980;73.388;2023-04-06T10:52:58;99603.50;;;22.80;29.99
50292;BME280;36190;54.980;73.388;2023-04-06T10:55:28;99611.97;;;22.99;30.10
50292;BME280;36190;54.980;73.388;2023-04-06T10:57:56;99607.38;;;23.26;29.70
50292;BME280;36190;54.980;73.388;2023-04-06T11:00:25;99600.81;;;23.68;29.40
50292;BME280;36190;54.980;73.388;2023-04-06T11:02:59;99606.44;;;24.13;29.40
50292;BME280;36190;54.980;73.388;2023-04-06T11:05:27;99591.28;;;24.47;28.83
50292;BME280;36190;54.980;73.388;2023-04-06T11:07:54;99595.31;;;24.60;28.90
50292;BME280;36190;54.980;73.388;2023-04-06T11:10:22;99588.69;;;24.71;28.55
50292;BME280;36190;54.980;73.388;2023-04-06T11:12:54;99589.88;;;25.00;28.39
50292;BME280;36190;54.980;73.388;2023-04-06T11:15:22;99585.00;;;25.32;28.40
50292;BME280;36190;54.980;73.388;2023-04-06T11:17:50;99586.13;;;25.60;27.85
50292;BME280;36190;54.980;73.388;2023-04-06T11:20:17;99587.09;;;25.94;27.82
50292;BME280;36190;54.980;73.388;2023-04-06T11:22:50;99574.63;;;25.88;27.58
50292;BME280;36190;54.980;73.388;2023-04-06T11:25:18;99582.84;;;25.58;27.85
50292;BME280;36190;54.980;73.388;2023-04-06T11:27:46;99568.50;;;25.42;27.90
50292;BME280;36190;54.980;73.388;2023-04-06T11:30:15;99584.16;;;25.66;28.23
50292;BME280;36190;54.980;73.388;2023-04-06T11:32:44;99568.63;;;26.10;27.66
50292;BME280;36190;54.980;73.388;2023-04-06T11:35:19;99580.66;;;26.72;27.34
50292;BME280;36190;54.980;73.388;2023-04-06T11:37:48;99577.09;;;27.24;26.79
50292;BME280;36190;54.980;73.388;2023-04-06T11:40:21;99575.22;;;27.38;26.09
50292;BME280;36190;54.980;73.388;2023-04-06T11:42:54;99572.94;;;27.12;26.44
50292;BME280;36190;54.980;73.388;2023-04-06T11:45:24;99569.69;;;27.10;26.65
50292;BME280;36190;54.980;73.388;2023-04-06T11:47:59;99568.22;;;26.99;26.56
50292;BME280;36190;54.980;73.388;2023-04-06T11:50:32;99558.88;;;27.00;26.98
50292;BME280;36190;54.980;73.388;2023-04-06T11:53:01;99560.88;;;27.27;26.97
50292;BME280;36190;54.980;73.388;2023-04-06T11:55:37;99562.88;;;27.55;26.61
50292;BME280;36190;54.980;73.388;2023-04-06T11:58:04;99555.38;;;27.75;26.74
50292;BME280;36190;54.980;73.388;2023-04-06T12:00:34;99556.81;;;27.86;26.58
50292;BME280;36190;54.980;73.388;2023-04-06T12:03:02;99557.22;;;27.93;26.75
50292;BME280;36190;54.980;73.388;2023-04-06T12:05:30;99550.91;;;27.93;26.50
50292;BME280;36190;54.980;73.388;2023-04-06T12:07:58;99549.09;;;27.88;26.58
50292;BME280;36190;54.980;73.388;2023-04-06T12:10:25;99547.78;;;27.85;26.35
50292;BME280;36190;54.980;73.388;2023-04-06T12:12:53;99543.81;;;27.78;26.54
50292;BME280;36190;54.980;73.388;2023-04-06T12:15:20;99551.44;;;27.67;26.41
50292;BME280;36190;54.980;73.388;2023-04-06T12:17:49;99542.97;;;27.35;27.02
50292;BME280;36190;54.980;73.388;2023-04-06T12:20:17;99541.28;;;27.06;27.40
50292;BME280;36190;54.980;73.388;2023-04-06T12:22:45;99527.38;;;26.83;27.56
50292;BME280;36190;54.980;73.388;2023-04-06T12:25:12;99530.81;;;26.56;28.08
50292;BME280;36190;54.980;73.388;2023-04-06T12:27:40;99522.38;;;26.14;27.94
50292;BME280;36190;54.980;73.388;2023-04-06T12:30:08;99529.63;;;25.56;28.59
50292;BME280;36190;54.980;73.388;2023-04-06T12:32:36;99527.34;;;25.09;29.16
50292;BME280;36190;54.980;73.388;2023-04-06T12:35:06;99517.53;;;24.68;30.09
50292;BME280;36190;54.980;73.388;2023-04-06T12:37:34;99516.84;;;24.47;30.31
50292;BME280;36190;54.980;73.388;2023-04-06T12:40:02;99514.44;;;24.45;30.45
50292;BME280;36190;54.980;73.388;2023-04-06T12:42:30;99511.50;;;24.31;30.80
50292;BME280;36190;54.980;73.388;2023-04-06T12:44:58;99505.09;;;24.06;31.30
50292;BME280;36190;54.980;73.388;2023-04-06T12:47:26;99493.25;;;23.76;31.66
50292;BME280;36190;54.980;73.388;2023-04-06T12:49:53;99503.66;;;23.53;32.18
50292;BME280;36190;54.980;73.388;2023-04-06T12:52:22;99496.38;;;23.23;32.78
50292;BME280;36190;54.980;73.388;2023-04-06T12:54:50;99502.66;;;22.71;33.43
50292;BME280;36190;54.980;73.388;2023-04-06T12:57:18;99490.28;;;22.11;34.28